JBU2173 KBOS-TNCC
Flight info
| Callsign | JBU2173 |
|---|---|
| Flight time | N/A |
| Altitude | 34000 |
| Route | SSOXS7 SSOXS DCT BUZRD DCT SEY DCT HTO DCT WEBBB/M078F340 Y488 HOBOH/M078F350 Y488 CHUBY/M078F340 Y488 SAUCR/M078F350 L453 ALOBI/M078F340 DCT KASAR/M078F350 L452 LNHOM/N0458F350 L452 JORGG DCT POKEG UT17 KOBET/N0456F360 UT17 KARUM KARUM1B |
| Aircraft | A321/M-SDE3FGHIRWY/LB1 |
Departure
| Time | N/A |
|---|---|
| Airport | Boston Logan International Airport (KBOS) |
Arrival
| Time | 2026-04-29 16:27 |
|---|---|
| Airport | Hato International Airport (TNCC) |
| Time | Latitude | Longitude | Altitude | Speed | Heading |
|---|---|---|---|---|---|
| 2026-04-29 16:07 | 13.36440 | -69.22399 | 19656 ft | 354 kts | 180° |
| 2026-04-29 16:07 | 13.33987 | -69.22266 | 19206 ft | 352 kts | 178° |
| 2026-04-29 16:07 | 13.31553 | -69.22096 | 18781 ft | 349 kts | 177° |
| 2026-04-29 16:08 | 13.29140 | -69.21909 | 18363 ft | 347 kts | 176° |
| 2026-04-29 16:08 | 13.26740 | -69.21720 | 17909 ft | 344 kts | 176° |
| 2026-04-29 16:08 | 13.24363 | -69.21537 | 17498 ft | 340 kts | 176° |
| 2026-04-29 16:08 | 13.22016 | -69.21365 | 17088 ft | 336 kts | 176° |
| 2026-04-29 16:09 | 13.19726 | -69.21206 | 16687 ft | 333 kts | 176° |
| 2026-04-29 16:09 | 13.17426 | -69.21051 | 16276 ft | 330 kts | 176° |
| 2026-04-29 16:09 | 13.15147 | -69.20901 | 15891 ft | 327 kts | 176° |
| 2026-04-29 16:09 | 13.12882 | -69.20755 | 15498 ft | 324 kts | 176° |
| 2026-04-29 16:10 | 13.10640 | -69.20610 | 15108 ft | 322 kts | 176° |
| 2026-04-29 16:10 | 13.08414 | -69.20464 | 14730 ft | 319 kts | 176° |
| 2026-04-29 16:10 | 13.06207 | -69.20316 | 14337 ft | 318 kts | 176° |
| 2026-04-29 16:10 | 13.04002 | -69.20169 | 13951 ft | 316 kts | 175° |
| 2026-04-29 16:11 | 13.01815 | -69.20025 | 13553 ft | 314 kts | 175° |
| 2026-04-29 16:11 | 12.99640 | -69.19882 | 13160 ft | 311 kts | 175° |
| 2026-04-29 16:11 | 12.97492 | -69.19740 | 12782 ft | 308 kts | 174° |
| 2026-04-29 16:11 | 12.95354 | -69.19599 | 12415 ft | 305 kts | 174° |
| 2026-04-29 16:12 | 12.93244 | -69.19460 | 12057 ft | 303 kts | 173° |
| 2026-04-29 16:12 | 12.91856 | -69.19369 | 11808 ft | 301 kts | 174° |
| 2026-04-29 16:12 | 12.89103 | -69.19188 | 11322 ft | 298 kts | 173° |
| 2026-04-29 16:12 | 12.87034 | -69.19052 | 10963 ft | 296 kts | 172° |
| 2026-04-29 16:13 | 12.84982 | -69.18914 | 10609 ft | 295 kts | 173° |
| 2026-04-29 16:13 | 12.82944 | -69.18778 | 10247 ft | 294 kts | 173° |
| 2026-04-29 16:13 | 12.80907 | -69.18644 | 9896 ft | 293 kts | 173° |
| 2026-04-29 16:13 | 12.78887 | -69.18513 | 9634 ft | 290 kts | 173° |
| 2026-04-29 16:14 | 12.76876 | -69.18382 | 9374 ft | 289 kts | 172° |
| 2026-04-29 16:14 | 12.74874 | -69.18250 | 9121 ft | 288 kts | 173° |
| 2026-04-29 16:14 | 12.72875 | -69.18118 | 8867 ft | 287 kts | 172° |
| 2026-04-29 16:14 | 12.70887 | -69.17984 | 8613 ft | 286 kts | 173° |
| 2026-04-29 16:15 | 12.68904 | -69.17852 | 8366 ft | 285 kts | 172° |
| 2026-04-29 16:15 | 12.66926 | -69.17721 | 8112 ft | 283 kts | 173° |
| 2026-04-29 16:15 | 12.64984 | -69.17593 | 7865 ft | 282 kts | 172° |
| 2026-04-29 16:15 | 12.63030 | -69.17466 | 7623 ft | 281 kts | 173° |
| 2026-04-29 16:16 | 12.61072 | -69.17337 | 7370 ft | 280 kts | 173° |
| 2026-04-29 16:16 | 12.59131 | -69.17209 | 7136 ft | 278 kts | 173° |
| 2026-04-29 16:16 | 12.57203 | -69.17081 | 6901 ft | 278 kts | 173° |
| 2026-04-29 16:16 | 12.55281 | -69.16954 | 6665 ft | 276 kts | 173° |
| 2026-04-29 16:17 | 12.53367 | -69.16836 | 6428 ft | 274 kts | 173° |
| 2026-04-29 16:17 | 12.51496 | -69.16729 | 6272 ft | 265 kts | 173° |
| 2026-04-29 16:17 | 12.49657 | -69.16626 | 5957 ft | 264 kts | 173° |
| 2026-04-29 16:17 | 12.47843 | -69.16524 | 5763 ft | 257 kts | 173° |
| 2026-04-29 16:18 | 12.46095 | -69.16428 | 5641 ft | 247 kts | 173° |
| 2026-04-29 16:18 | 12.44424 | -69.16336 | 5520 ft | 237 kts | 173° |
| 2026-04-29 16:18 | 12.42808 | -69.16245 | 5383 ft | 229 kts | 173° |
| 2026-04-29 16:18 | 12.41237 | -69.16155 | 5067 ft | 224 kts | 172° |
| 2026-04-29 16:19 | 12.39698 | -69.16066 | 4715 ft | 221 kts | 172° |
| 2026-04-29 16:19 | 12.38159 | -69.15976 | 4489 ft | 221 kts | 172° |
| 2026-04-29 16:19 | 12.36631 | -69.15888 | 4276 ft | 218 kts | 172° |
| 2026-04-29 16:19 | 12.35119 | -69.15800 | 4086 ft | 218 kts | 172° |
| 2026-04-29 16:20 | 12.33594 | -69.15712 | 3893 ft | 218 kts | 172° |
| 2026-04-29 16:20 | 12.32101 | -69.15627 | 3718 ft | 216 kts | 172° |
| 2026-04-29 16:20 | 12.30599 | -69.15540 | 3634 ft | 217 kts | 172° |
| 2026-04-29 16:20 | 12.29085 | -69.15451 | 3544 ft | 216 kts | 172° |
| 2026-04-29 16:21 | 12.27647 | -69.15369 | 3463 ft | 197 kts | 172° |
| 2026-04-29 16:21 | 12.26319 | -69.15297 | 3362 ft | 187 kts | 171° |
| 2026-04-29 16:21 | 12.25032 | -69.15177 | 3277 ft | 185 kts | 162° |
| 2026-04-29 16:21 | 12.23869 | -69.14682 | 3197 ft | 180 kts | 143° |
| 2026-04-29 16:22 | 12.22972 | -69.13824 | 3142 ft | 175 kts | 124° |
| 2026-04-29 16:22 | 12.22430 | -69.12737 | 3010 ft | 172 kts | 105° |
| 2026-04-29 16:22 | 12.22167 | -69.11538 | 2819 ft | 173 kts | 102° |
| 2026-04-29 16:22 | 12.21919 | -69.10353 | 2624 ft | 164 kts | 103° |
| 2026-04-29 16:23 | 12.21690 | -69.09262 | 2411 ft | 152 kts | 103° |
| 2026-04-29 16:23 | 12.21471 | -69.08219 | 2210 ft | 149 kts | 104° |
| 2026-04-29 16:23 | 12.21255 | -69.07194 | 2035 ft | 143 kts | 103° |
| 2026-04-29 16:23 | 12.21047 | -69.06208 | 1858 ft | 139 kts | 102° |
| 2026-04-29 16:24 | 12.20846 | -69.05251 | 1668 ft | 137 kts | 102° |
| 2026-04-29 16:24 | 12.20713 | -69.04620 | 1556 ft | 137 kts | 102° |
| 2026-04-29 16:24 | 12.20515 | -69.03680 | 1375 ft | 132 kts | 101° |
| 2026-04-29 16:24 | 12.20323 | -69.02763 | 1181 ft | 131 kts | 104° |
| 2026-04-29 16:25 | 12.20145 | -69.01861 | 1021 ft | 127 kts | 104° |
| 2026-04-29 16:25 | 12.19946 | -69.00959 | 828 ft | 136 kts | 104° |
| 2026-04-29 16:25 | 12.19736 | -69.00020 | 710 ft | 134 kts | 101° |
| 2026-04-29 16:25 | 12.19540 | -68.99096 | 541 ft | 136 kts | 100° |
| 2026-04-29 16:26 | 12.19353 | -68.98170 | 353 ft | 133 kts | 100° |
| 2026-04-29 16:26 | 12.19161 | -68.97239 | 152 ft | 135 kts | 100° |
| 2026-04-29 16:26 | 12.18974 | -68.96353 | 34 ft | 116 kts | 100° |
| 2026-04-29 16:26 | 12.18835 | -68.95678 | 29 ft | 75 kts | 102° |
| 2026-04-29 16:27 | 12.18755 | -68.95311 | 27 ft | 38 kts | 103° |
| 2026-04-29 16:27 | 12.18701 | -68.95071 | 28 ft | 32 kts | 102° |
| 2026-04-29 16:27 | 12.18659 | -68.94869 | 31 ft | 27 kts | 102° |
| 2026-04-29 16:27 | 12.18620 | -68.94690 | 31 ft | 25 kts | 102° |
| 2026-04-29 16:28 | 12.18591 | -68.94554 | 32 ft | 15 kts | 102° |
| 2026-04-29 16:28 | 12.18524 | -68.94471 | 31 ft | 17 kts | 163° |
| 2026-04-29 16:28 | 12.18416 | -68.94513 | 30 ft | 18 kts | 246° |
| 2026-04-29 16:28 | 12.18431 | -68.94642 | 30 ft | 19 kts | 282° |
| 2026-04-29 16:29 | 12.18459 | -68.94778 | 29 ft | 21 kts | 283° |
| 2026-04-29 16:29 | 12.18493 | -68.94927 | 29 ft | 22 kts | 283° |
| 2026-04-29 16:29 | 12.18527 | -68.95081 | 29 ft | 23 kts | 283° |
| 2026-04-29 16:29 | 12.18564 | -68.95246 | 28 ft | 24 kts | 283° |
| 2026-04-29 16:30 | 12.18595 | -68.95404 | 28 ft | 19 kts | 280° |
| 2026-04-29 16:30 | 12.18610 | -68.95494 | 28 ft | 0 kts | 279° |
| 2026-04-29 16:30 | 12.18613 | -68.95514 | 28 ft | 7 kts | 279° |
| 2026-04-29 16:30 | 12.18623 | -68.95570 | 28 ft | 9 kts | 281° |
| 2026-04-29 16:31 | 12.18638 | -68.95637 | 28 ft | 9 kts | 283° |
| 2026-04-29 16:31 | 12.18601 | -68.95664 | 28 ft | 8 kts | 181° |
| 2026-04-29 16:31 | 12.18563 | -68.95669 | 28 ft | 2 kts | 191° |
| 2026-04-29 16:31 | 12.18561 | -68.95669 | 28 ft | 0 kts | 191° |